JBU1084 KCOS-KSAN
Flight info
| Callsign | JBU1084 |
|---|---|
| Flight time | 2h 3m |
| Altitude | 18000 |
| Route | DRAKE V83 PUB/N0456F300 TBC/N0460F320 PLNDL Q86 TTRUE LUCKI1 |
| Aircraft | A321/M-SDE3FGHIRWY/LB1 |
Departure
| Time | 2026-05-04 00:52 |
|---|---|
| Airport | City of Colorado Springs Municipal Airport (KCOS) |
Arrival
| Time | 2026-05-04 02:56 |
|---|---|
| Airport | San Diego International Airport (KSAN) |
| Time | Latitude | Longitude | Altitude | Speed | Heading |
|---|---|---|---|---|---|
| 2026-05-04 00:23 | 38.79877 | -104.70162 | 6145 ft | 0 kts | 84° |
| 2026-05-04 00:38 | 38.79875 | -104.70191 | 6144 ft | 4 kts | 87° |
| 2026-05-04 00:38 | 38.79873 | -104.70225 | 6144 ft | 4 kts | 80° |
| 2026-05-04 00:39 | 38.79866 | -104.70252 | 6144 ft | 4 kts | 20° |
| 2026-05-04 00:39 | 38.79857 | -104.70254 | 6144 ft | 1 kts | 0° |
| 2026-05-04 00:39 | 38.79856 | -104.70254 | 6144 ft | 0 kts | 0° |
| 2026-05-04 00:44 | 38.79866 | -104.70254 | 6144 ft | 7 kts | 0° |
| 2026-05-04 00:45 | 38.79937 | -104.70255 | 6144 ft | 14 kts | 359° |
| 2026-05-04 00:45 | 38.80037 | -104.70254 | 6147 ft | 10 kts | 4° |
| 2026-05-04 00:45 | 38.80070 | -104.70220 | 6148 ft | 10 kts | 72° |
| 2026-05-04 00:45 | 38.80077 | -104.70120 | 6148 ft | 12 kts | 79° |
| 2026-05-04 00:46 | 38.80149 | -104.70086 | 6149 ft | 12 kts | 1° |
| 2026-05-04 00:46 | 38.80242 | -104.70086 | 6151 ft | 15 kts | 359° |
| 2026-05-04 00:46 | 38.80342 | -104.70072 | 6153 ft | 12 kts | 33° |
| 2026-05-04 00:46 | 38.80361 | -104.69963 | 6153 ft | 15 kts | 89° |
| 2026-05-04 00:47 | 38.80360 | -104.69819 | 6153 ft | 18 kts | 90° |
| 2026-05-04 00:47 | 38.80360 | -104.69642 | 6153 ft | 21 kts | 89° |
| 2026-05-04 00:47 | 38.80362 | -104.69446 | 6153 ft | 23 kts | 91° |
| 2026-05-04 00:47 | 38.80360 | -104.69236 | 6153 ft | 24 kts | 90° |
| 2026-05-04 00:48 | 38.80359 | -104.69015 | 6153 ft | 25 kts | 89° |
| 2026-05-04 00:48 | 38.80363 | -104.68824 | 6153 ft | 14 kts | 77° |
| 2026-05-04 00:48 | 38.80444 | -104.68785 | 6154 ft | 13 kts | 0° |
| 2026-05-04 00:48 | 38.80547 | -104.68787 | 6160 ft | 16 kts | 359° |
| 2026-05-04 00:49 | 38.80672 | -104.68786 | 6158 ft | 20 kts | 0° |
| 2026-05-04 00:49 | 38.80814 | -104.68786 | 6160 ft | 22 kts | 0° |
| 2026-05-04 00:49 | 38.80971 | -104.68787 | 6163 ft | 23 kts | 359° |
| 2026-05-04 00:49 | 38.81130 | -104.68787 | 6165 ft | 23 kts | 1° |
| 2026-05-04 00:50 | 38.81291 | -104.68785 | 6168 ft | 23 kts | 0° |
| 2026-05-04 00:50 | 38.81457 | -104.68784 | 6173 ft | 24 kts | 360° |
| 2026-05-04 00:50 | 38.81590 | -104.68767 | 6173 ft | 8 kts | 51° |
| 2026-05-04 00:50 | 38.81599 | -104.68670 | 6173 ft | 16 kts | 90° |
| 2026-05-04 00:51 | 38.81562 | -104.68578 | 6177 ft | 0 kts | 175° |
| 2026-05-04 00:51 | 38.81553 | -104.68577 | 6176 ft | 1 kts | 176° |
| 2026-05-04 00:51 | 38.81335 | -104.68576 | 6172 ft | 66 kts | 180° |
| 2026-05-04 00:51 | 38.80662 | -104.68578 | 6158 ft | 126 kts | 180° |
| 2026-05-04 00:52 | 38.79611 | -104.68587 | 6150 ft | 174 kts | 183° |
| 2026-05-04 00:52 | 38.78386 | -104.68599 | 6704 ft | 176 kts | 178° |
| 2026-05-04 00:52 | 38.77142 | -104.68500 | 7112 ft | 184 kts | 179° |
| 2026-05-04 00:52 | 38.75846 | -104.68424 | 7403 ft | 190 kts | 179° |
| 2026-05-04 00:53 | 38.74520 | -104.68169 | 7695 ft | 199 kts | 156° |
| 2026-05-04 00:53 | 38.73451 | -104.67067 | 7992 ft | 201 kts | 121° |
| 2026-05-04 00:53 | 38.72686 | -104.65523 | 8312 ft | 212 kts | 121° |
| 2026-05-04 00:53 | 38.71871 | -104.63866 | 8516 ft | 227 kts | 120° |
| 2026-05-04 00:54 | 38.71004 | -104.62114 | 8712 ft | 239 kts | 121° |
| 2026-05-04 00:54 | 38.70086 | -104.60268 | 8911 ft | 253 kts | 121° |
| 2026-05-04 00:54 | 38.69102 | -104.58294 | 9043 ft | 274 kts | 121° |
| 2026-05-04 00:54 | 38.68037 | -104.56160 | 9254 ft | 296 kts | 121° |
| 2026-05-04 00:55 | 38.66907 | -104.53901 | 9337 ft | 304 kts | 122° |
| 2026-05-04 00:55 | 38.65759 | -104.51610 | 9535 ft | 307 kts | 124° |
| 2026-05-04 00:55 | 38.64607 | -104.49310 | 9737 ft | 306 kts | 123° |
| 2026-05-04 00:55 | 38.63427 | -104.47016 | 9818 ft | 319 kts | 128° |
| 2026-05-04 00:56 | 38.61856 | -104.44869 | 9844 ft | 342 kts | 142° |
| 2026-05-04 00:56 | 38.59815 | -104.43135 | 9839 ft | 362 kts | 155° |
| 2026-05-04 00:56 | 38.57438 | -104.42042 | 9829 ft | 366 kts | 169° |
| 2026-05-04 00:56 | 38.54913 | -104.41706 | 9845 ft | 364 kts | 183° |
| 2026-05-04 00:57 | 38.52397 | -104.41828 | 9851 ft | 360 kts | 184° |
| 2026-05-04 00:57 | 38.49893 | -104.41956 | 9861 ft | 358 kts | 184° |
| 2026-05-04 00:57 | 38.47405 | -104.42081 | 9870 ft | 357 kts | 184° |
| 2026-05-04 00:57 | 38.44926 | -104.42202 | 9864 ft | 353 kts | 184° |
| 2026-05-04 00:58 | 38.42437 | -104.42322 | 9886 ft | 356 kts | 183° |
| 2026-05-04 00:58 | 38.39949 | -104.42439 | 9893 ft | 357 kts | 183° |
| 2026-05-04 00:58 | 38.37465 | -104.42555 | 9904 ft | 356 kts | 183° |
| 2026-05-04 00:58 | 38.34998 | -104.42671 | 9908 ft | 354 kts | 183° |
| 2026-05-04 00:59 | 38.32545 | -104.42790 | 10013 ft | 353 kts | 184° |
| 2026-05-04 00:59 | 38.30107 | -104.43323 | 10342 ft | 361 kts | 203° |
| 2026-05-04 00:59 | 38.28050 | -104.45116 | 10674 ft | 362 kts | 229° |
| 2026-05-04 00:59 | 38.26752 | -104.47844 | 11013 ft | 363 kts | 249° |
| 2026-05-04 01:00 | 38.26022 | -104.50919 | 11351 ft | 364 kts | 257° |
| 2026-05-04 01:00 | 38.25509 | -104.54072 | 11696 ft | 365 kts | 259° |
| 2026-05-04 01:00 | 38.24981 | -104.57230 | 12034 ft | 366 kts | 257° |
| 2026-05-04 01:00 | 38.24340 | -104.60370 | 12383 ft | 368 kts | 254° |
| 2026-05-04 01:01 | 38.23573 | -104.63478 | 12733 ft | 369 kts | 252° |
| 2026-05-04 01:01 | 38.22711 | -104.66563 | 13072 ft | 371 kts | 250° |
| 2026-05-04 01:01 | 38.21796 | -104.69636 | 13424 ft | 373 kts | 249° |
| 2026-05-04 01:01 | 38.20860 | -104.72714 | 13764 ft | 374 kts | 249° |
| 2026-05-04 01:02 | 38.19919 | -104.75805 | 14079 ft | 376 kts | 250° |
| 2026-05-04 01:02 | 38.18985 | -104.78914 | 14399 ft | 377 kts | 250° |
| 2026-05-04 01:02 | 38.18057 | -104.82043 | 14725 ft | 379 kts | 250° |
| 2026-05-04 01:02 | 38.17132 | -104.85187 | 15079 ft | 381 kts | 251° |
| 2026-05-04 01:03 | 38.16207 | -104.88349 | 15410 ft | 382 kts | 251° |
| 2026-05-04 01:03 | 38.15281 | -104.91513 | 15752 ft | 383 kts | 251° |
| 2026-05-04 01:03 | 38.14351 | -104.94688 | 16101 ft | 383 kts | 251° |
| 2026-05-04 01:03 | 38.13423 | -104.97859 | 16454 ft | 383 kts | 251° |
| 2026-05-04 01:04 | 38.12491 | -105.01032 | 16809 ft | 385 kts | 250° |
| 2026-05-04 01:04 | 38.11551 | -105.04227 | 17175 ft | 387 kts | 250° |
| 2026-05-04 01:04 | 38.10608 | -105.07430 | 17542 ft | 388 kts | 250° |
| 2026-05-04 01:04 | 38.09660 | -105.10650 | 17793 ft | 390 kts | 250° |
| 2026-05-04 01:05 | 38.08695 | -105.13924 | 17847 ft | 405 kts | 250° |
| 2026-05-04 01:05 | 38.07693 | -105.17315 | 17841 ft | 412 kts | 250° |
| 2026-05-04 01:05 | 38.06682 | -105.20724 | 17842 ft | 414 kts | 250° |
| 2026-05-04 01:05 | 38.05665 | -105.24144 | 17835 ft | 414 kts | 250° |
| 2026-05-04 01:06 | 38.04647 | -105.27554 | 17830 ft | 414 kts | 250° |
| 2026-05-04 01:06 | 38.03624 | -105.30975 | 17835 ft | 414 kts | 250° |
| 2026-05-04 01:06 | 38.02607 | -105.34378 | 17840 ft | 412 kts | 250° |
| 2026-05-04 01:06 | 38.01589 | -105.37785 | 17829 ft | 412 kts | 250° |
| 2026-05-04 01:07 | 38.00575 | -105.41182 | 17870 ft | 412 kts | 250° |
| 2026-05-04 01:07 | 37.99560 | -105.44573 | 17871 ft | 412 kts | 250° |
| 2026-05-04 01:07 | 37.98543 | -105.47970 | 17873 ft | 412 kts | 250° |
| 2026-05-04 01:07 | 37.97540 | -105.51320 | 17864 ft | 412 kts | 250° |
| 2026-05-04 01:08 | 37.96509 | -105.54750 | 17861 ft | 411 kts | 250° |
| 2026-05-04 01:08 | 37.95488 | -105.58136 | 17859 ft | 411 kts | 250° |
| 2026-05-04 01:08 | 37.94484 | -105.61474 | 17855 ft | 411 kts | 250° |
| 2026-05-04 01:08 | 37.93453 | -105.64906 | 17867 ft | 411 kts | 250° |
| 2026-05-04 01:09 | 37.92431 | -105.68297 | 17856 ft | 412 kts | 250° |
| 2026-05-04 01:09 | 37.91418 | -105.71638 | 17852 ft | 413 kts | 250° |
| 2026-05-04 01:09 | 37.90386 | -105.75039 | 17854 ft | 413 kts | 250° |
| 2026-05-04 01:09 | 37.89357 | -105.78434 | 17876 ft | 414 kts | 250° |
| 2026-05-04 01:10 | 37.88326 | -105.81835 | 17881 ft | 414 kts | 250° |
| 2026-05-04 01:10 | 37.87294 | -105.85239 | 17881 ft | 414 kts | 250° |
| 2026-05-04 01:10 | 37.86259 | -105.88644 | 17882 ft | 414 kts | 250° |
| 2026-05-04 01:10 | 37.85226 | -105.92046 | 17883 ft | 414 kts | 250° |
| 2026-05-04 01:11 | 37.84190 | -105.95451 | 17931 ft | 415 kts | 250° |
| 2026-05-04 01:11 | 37.83156 | -105.98848 | 17956 ft | 415 kts | 250° |
| 2026-05-04 01:11 | 37.82115 | -106.02252 | 17975 ft | 414 kts | 250° |
| 2026-05-04 01:11 | 37.81076 | -106.05641 | 18006 ft | 413 kts | 250° |
| 2026-05-04 01:12 | 37.80040 | -106.09012 | 18050 ft | 412 kts | 249° |
| 2026-05-04 01:12 | 37.79003 | -106.12388 | 18067 ft | 412 kts | 250° |
| 2026-05-04 01:12 | 37.77968 | -106.15758 | 18084 ft | 411 kts | 249° |
| 2026-05-04 01:12 | 37.76933 | -106.19124 | 18094 ft | 411 kts | 250° |
| 2026-05-04 01:13 | 37.75897 | -106.22490 | 18108 ft | 411 kts | 249° |
| 2026-05-04 01:13 | 37.74862 | -106.25853 | 18114 ft | 410 kts | 249° |
| 2026-05-04 01:13 | 37.73825 | -106.29214 | 18112 ft | 410 kts | 249° |
| 2026-05-04 01:13 | 37.72790 | -106.32566 | 18113 ft | 410 kts | 249° |
| 2026-05-04 01:14 | 37.71753 | -106.35924 | 18106 ft | 410 kts | 250° |
| 2026-05-04 01:14 | 37.70718 | -106.39279 | 18107 ft | 410 kts | 250° |
| 2026-05-04 01:14 | 37.69679 | -106.42636 | 18108 ft | 410 kts | 250° |
| 2026-05-04 01:14 | 37.68636 | -106.45990 | 18105 ft | 410 kts | 250° |
| 2026-05-04 01:15 | 37.67591 | -106.49342 | 18101 ft | 410 kts | 250° |
| 2026-05-04 01:15 | 37.66547 | -106.52691 | 18089 ft | 410 kts | 250° |
| 2026-05-04 01:15 | 37.65503 | -106.56040 | 18082 ft | 410 kts | 250° |
| 2026-05-04 01:15 | 37.64461 | -106.59392 | 18071 ft | 410 kts | 250° |
| 2026-05-04 01:16 | 37.63416 | -106.62747 | 18063 ft | 410 kts | 250° |
| 2026-05-04 01:16 | 37.62374 | -106.66087 | 18066 ft | 410 kts | 250° |
| 2026-05-04 01:16 | 37.61327 | -106.69430 | 18052 ft | 410 kts | 249° |
| 2026-05-04 01:16 | 37.60277 | -106.72774 | 18039 ft | 410 kts | 250° |
| 2026-05-04 01:17 | 37.59227 | -106.76114 | 18028 ft | 410 kts | 250° |
| 2026-05-04 01:17 | 37.58177 | -106.79452 | 18026 ft | 410 kts | 250° |
| 2026-05-04 01:17 | 37.57129 | -106.82789 | 18028 ft | 410 kts | 250° |
| 2026-05-04 01:17 | 37.56077 | -106.86134 | 18029 ft | 410 kts | 250° |
| 2026-05-04 01:18 | 37.55026 | -106.89469 | 18051 ft | 410 kts | 250° |
| 2026-05-04 01:18 | 37.53975 | -106.92808 | 18055 ft | 410 kts | 250° |
| 2026-05-04 01:18 | 37.52924 | -106.96147 | 18060 ft | 410 kts | 250° |
| 2026-05-04 01:18 | 37.51873 | -106.99481 | 18068 ft | 410 kts | 250° |
| 2026-05-04 01:19 | 37.50820 | -107.02810 | 18071 ft | 409 kts | 250° |
| 2026-05-04 01:19 | 37.49761 | -107.06143 | 18069 ft | 410 kts | 250° |
| 2026-05-04 01:19 | 37.48703 | -107.09467 | 18083 ft | 410 kts | 249° |
| 2026-05-04 01:19 | 37.47642 | -107.12798 | 18087 ft | 409 kts | 249° |
| 2026-05-04 01:20 | 37.46585 | -107.16111 | 18087 ft | 408 kts | 250° |
| 2026-05-04 01:20 | 37.45530 | -107.19423 | 18084 ft | 408 kts | 250° |
| 2026-05-04 01:20 | 37.44473 | -107.22738 | 18079 ft | 407 kts | 250° |
| 2026-05-04 01:20 | 37.43416 | -107.26042 | 18073 ft | 407 kts | 249° |
| 2026-05-04 01:21 | 37.42358 | -107.29346 | 18068 ft | 407 kts | 249° |
| 2026-05-04 01:21 | 37.41301 | -107.32652 | 18060 ft | 407 kts | 249° |
| 2026-05-04 01:21 | 37.40244 | -107.35954 | 18052 ft | 407 kts | 249° |
| 2026-05-04 01:21 | 37.39185 | -107.39260 | 18042 ft | 407 kts | 249° |
| 2026-05-04 01:22 | 37.38124 | -107.42564 | 18031 ft | 407 kts | 249° |
| 2026-05-04 01:22 | 37.37062 | -107.45860 | 18025 ft | 407 kts | 249° |
| 2026-05-04 01:22 | 37.35997 | -107.49164 | 18010 ft | 407 kts | 249° |
| 2026-05-04 01:22 | 37.34937 | -107.52461 | 18009 ft | 407 kts | 249° |
| 2026-05-04 01:23 | 37.33876 | -107.55756 | 18009 ft | 407 kts | 249° |
| 2026-05-04 01:23 | 37.32811 | -107.59054 | 18005 ft | 407 kts | 249° |
| 2026-05-04 01:23 | 37.31746 | -107.62346 | 17984 ft | 407 kts | 249° |
| 2026-05-04 01:23 | 37.30680 | -107.65635 | 17983 ft | 406 kts | 249° |
| 2026-05-04 01:24 | 37.29615 | -107.68921 | 17987 ft | 406 kts | 249° |
| 2026-05-04 01:24 | 37.28567 | -107.72158 | 17989 ft | 406 kts | 249° |
| 2026-05-04 01:24 | 37.27506 | -107.75440 | 17981 ft | 405 kts | 248° |
| 2026-05-04 01:24 | 37.26444 | -107.78715 | 18050 ft | 405 kts | 248° |
| 2026-05-04 01:25 | 37.25374 | -107.81989 | 17983 ft | 405 kts | 248° |
| 2026-05-04 01:25 | 37.24304 | -107.85260 | 17981 ft | 405 kts | 248° |
| 2026-05-04 01:25 | 37.23235 | -107.88530 | 17968 ft | 405 kts | 248° |
| 2026-05-04 01:25 | 37.22168 | -107.91800 | 17965 ft | 405 kts | 248° |
| 2026-05-04 01:26 | 37.21103 | -107.95066 | 17969 ft | 405 kts | 248° |
| 2026-05-04 01:26 | 37.20035 | -107.98337 | 17968 ft | 405 kts | 248° |
| 2026-05-04 01:26 | 37.18965 | -108.01612 | 17971 ft | 405 kts | 248° |
| 2026-05-04 01:26 | 37.17893 | -108.04876 | 17959 ft | 405 kts | 248° |
| 2026-05-04 01:27 | 37.16819 | -108.08146 | 17957 ft | 405 kts | 248° |
| 2026-05-04 01:27 | 37.15745 | -108.11412 | 17957 ft | 405 kts | 248° |
| 2026-05-04 01:27 | 37.14669 | -108.14675 | 17957 ft | 405 kts | 248° |
| 2026-05-04 01:27 | 37.13593 | -108.17934 | 17942 ft | 405 kts | 248° |
| 2026-05-04 01:28 | 37.12518 | -108.21196 | 17946 ft | 405 kts | 248° |
| 2026-05-04 01:28 | 37.11804 | -108.23361 | 17944 ft | 405 kts | 248° |
| 2026-05-04 01:28 | 37.10728 | -108.26619 | 17946 ft | 405 kts | 248° |
| 2026-05-04 01:28 | 37.09649 | -108.29878 | 17946 ft | 405 kts | 248° |
| 2026-05-04 01:29 | 37.08570 | -108.33135 | 17947 ft | 405 kts | 248° |
| 2026-05-04 01:29 | 37.07490 | -108.36394 | 17945 ft | 405 kts | 248° |
| 2026-05-04 01:29 | 37.06406 | -108.39652 | 17947 ft | 405 kts | 248° |
| 2026-05-04 01:29 | 37.05323 | -108.42907 | 17949 ft | 405 kts | 248° |
| 2026-05-04 01:30 | 37.04243 | -108.46166 | 17929 ft | 405 kts | 248° |
| 2026-05-04 01:30 | 37.03160 | -108.49419 | 17930 ft | 405 kts | 247° |
| 2026-05-04 01:30 | 37.02074 | -108.52672 | 17931 ft | 405 kts | 247° |
| 2026-05-04 01:30 | 37.00988 | -108.55923 | 17932 ft | 405 kts | 247° |
| 2026-05-04 01:31 | 36.99903 | -108.59175 | 17917 ft | 405 kts | 247° |
| 2026-05-04 01:31 | 36.98817 | -108.62426 | 17917 ft | 405 kts | 247° |
| 2026-05-04 01:31 | 36.97730 | -108.65676 | 17919 ft | 405 kts | 247° |
| 2026-05-04 01:31 | 36.96638 | -108.68926 | 17908 ft | 405 kts | 247° |
| 2026-05-04 01:32 | 36.95547 | -108.72166 | 17893 ft | 404 kts | 247° |
| 2026-05-04 01:32 | 36.94457 | -108.75404 | 17892 ft | 404 kts | 247° |
| 2026-05-04 01:32 | 36.93368 | -108.78643 | 17893 ft | 404 kts | 247° |
| 2026-05-04 01:32 | 36.92280 | -108.81873 | 17906 ft | 403 kts | 247° |
| 2026-05-04 01:33 | 36.91190 | -108.85104 | 17902 ft | 403 kts | 247° |
| 2026-05-04 01:33 | 36.90101 | -108.88328 | 17909 ft | 402 kts | 247° |
| 2026-05-04 01:33 | 36.89015 | -108.91547 | 17917 ft | 402 kts | 247° |
| 2026-05-04 01:33 | 36.87927 | -108.94762 | 17903 ft | 402 kts | 247° |
| 2026-05-04 01:34 | 36.86837 | -108.97978 | 17901 ft | 402 kts | 247° |
| 2026-05-04 01:34 | 36.85744 | -109.01193 | 17893 ft | 402 kts | 246° |
| 2026-05-04 01:34 | 36.84652 | -109.04402 | 17891 ft | 402 kts | 246° |
| 2026-05-04 01:34 | 36.83562 | -109.07613 | 17892 ft | 402 kts | 247° |
| 2026-05-04 01:35 | 36.82474 | -109.10819 | 17891 ft | 401 kts | 247° |
| 2026-05-04 01:35 | 36.81388 | -109.14027 | 17894 ft | 401 kts | 246° |
| 2026-05-04 01:35 | 36.80302 | -109.17233 | 17902 ft | 401 kts | 246° |
| 2026-05-04 01:35 | 36.79214 | -109.20432 | 17894 ft | 401 kts | 247° |
| 2026-05-04 01:36 | 36.78121 | -109.23630 | 17900 ft | 401 kts | 246° |
| 2026-05-04 01:36 | 36.77022 | -109.26830 | 17893 ft | 401 kts | 246° |
| 2026-05-04 01:36 | 36.75925 | -109.30029 | 17891 ft | 401 kts | 246° |
| 2026-05-04 01:36 | 36.74827 | -109.33226 | 17894 ft | 401 kts | 246° |
| 2026-05-04 01:37 | 36.73731 | -109.36420 | 17898 ft | 401 kts | 246° |
| 2026-05-04 01:37 | 36.72635 | -109.39615 | 17896 ft | 401 kts | 246° |
| 2026-05-04 01:37 | 36.71537 | -109.42811 | 17891 ft | 401 kts | 246° |
| 2026-05-04 01:37 | 36.70437 | -109.46001 | 17893 ft | 401 kts | 246° |
| 2026-05-04 01:38 | 36.69338 | -109.49190 | 17897 ft | 400 kts | 246° |
| 2026-05-04 01:38 | 36.68239 | -109.52371 | 17914 ft | 400 kts | 246° |
| 2026-05-04 01:38 | 36.67140 | -109.55552 | 17900 ft | 399 kts | 246° |
| 2026-05-04 01:38 | 36.66045 | -109.58728 | 17886 ft | 399 kts | 246° |
| 2026-05-04 01:39 | 36.64953 | -109.61895 | 17887 ft | 398 kts | 246° |
| 2026-05-04 01:39 | 36.63858 | -109.65064 | 17882 ft | 398 kts | 246° |
| 2026-05-04 01:39 | 36.62776 | -109.68189 | 17872 ft | 398 kts | 246° |
| 2026-05-04 01:39 | 36.61679 | -109.71350 | 17870 ft | 398 kts | 246° |
| 2026-05-04 01:40 | 36.60581 | -109.74505 | 17873 ft | 398 kts | 246° |
| 2026-05-04 01:40 | 36.59481 | -109.77663 | 17871 ft | 397 kts | 246° |
| 2026-05-04 01:40 | 36.58383 | -109.80816 | 17870 ft | 397 kts | 246° |
| 2026-05-04 01:40 | 36.57284 | -109.83969 | 17873 ft | 397 kts | 246° |
| 2026-05-04 01:41 | 36.56171 | -109.87157 | 17873 ft | 397 kts | 246° |
| 2026-05-04 01:41 | 36.55087 | -109.90263 | 17874 ft | 396 kts | 246° |
| 2026-05-04 01:41 | 36.53990 | -109.93406 | 17883 ft | 396 kts | 246° |
| 2026-05-04 01:41 | 36.52894 | -109.96550 | 17882 ft | 396 kts | 246° |
| 2026-05-04 01:42 | 36.51779 | -109.99732 | 17877 ft | 396 kts | 246° |
| 2026-05-04 01:42 | 36.50677 | -110.02868 | 17877 ft | 396 kts | 246° |
| 2026-05-04 01:42 | 36.49591 | -110.05960 | 17875 ft | 396 kts | 246° |
| 2026-05-04 01:42 | 36.48491 | -110.09096 | 17882 ft | 395 kts | 246° |
| 2026-05-04 01:43 | 36.47391 | -110.12224 | 17881 ft | 395 kts | 246° |
| 2026-05-04 01:43 | 36.46288 | -110.15358 | 17891 ft | 395 kts | 245° |
| 2026-05-04 01:43 | 36.45186 | -110.18481 | 17894 ft | 395 kts | 245° |
| 2026-05-04 01:43 | 36.44083 | -110.21602 | 17899 ft | 395 kts | 245° |
| 2026-05-04 01:44 | 36.42978 | -110.24721 | 17899 ft | 394 kts | 245° |
| 2026-05-04 01:44 | 36.41877 | -110.27831 | 17885 ft | 394 kts | 245° |
| 2026-05-04 01:44 | 36.40775 | -110.30946 | 17890 ft | 393 kts | 245° |
| 2026-05-04 01:44 | 36.39674 | -110.34053 | 17885 ft | 393 kts | 245° |
| 2026-05-04 01:45 | 36.38571 | -110.37156 | 17889 ft | 393 kts | 245° |
| 2026-05-04 01:45 | 36.37468 | -110.40269 | 17887 ft | 393 kts | 245° |
| 2026-05-04 01:45 | 36.35261 | -110.46477 | 17886 ft | 393 kts | 245° |
| 2026-05-04 01:46 | 36.34157 | -110.49573 | 17881 ft | 393 kts | 245° |
| 2026-05-04 01:46 | 36.33054 | -110.52674 | 17879 ft | 393 kts | 245° |
| 2026-05-04 01:46 | 36.31949 | -110.55778 | 17878 ft | 393 kts | 245° |
| 2026-05-04 01:46 | 36.30843 | -110.58878 | 17875 ft | 393 kts | 245° |
| 2026-05-04 01:47 | 36.29737 | -110.61978 | 17861 ft | 393 kts | 245° |
| 2026-05-04 01:47 | 36.28629 | -110.65081 | 17861 ft | 393 kts | 245° |
| 2026-05-04 01:47 | 36.27519 | -110.68177 | 17862 ft | 393 kts | 244° |
| 2026-05-04 01:47 | 36.26406 | -110.71278 | 17865 ft | 393 kts | 245° |
| 2026-05-04 01:48 | 36.25294 | -110.74372 | 17857 ft | 393 kts | 245° |
| 2026-05-04 01:48 | 36.24184 | -110.77465 | 17849 ft | 393 kts | 245° |
| 2026-05-04 01:48 | 36.23075 | -110.80562 | 17849 ft | 393 kts | 245° |
| 2026-05-04 01:48 | 36.21968 | -110.83655 | 17853 ft | 394 kts | 244° |
| 2026-05-04 01:49 | 36.20852 | -110.86759 | 17846 ft | 394 kts | 244° |
| 2026-05-04 01:49 | 36.19733 | -110.89852 | 17835 ft | 394 kts | 244° |
| 2026-05-04 01:49 | 36.18608 | -110.92958 | 17838 ft | 395 kts | 244° |
| 2026-05-04 01:49 | 36.17486 | -110.96054 | 17838 ft | 395 kts | 244° |
| 2026-05-04 01:50 | 36.16359 | -110.99158 | 17839 ft | 395 kts | 244° |
| 2026-05-04 01:50 | 36.15232 | -111.02263 | 17828 ft | 395 kts | 244° |
| 2026-05-04 01:50 | 36.14105 | -111.05363 | 17829 ft | 395 kts | 244° |
| 2026-05-04 01:50 | 36.12976 | -111.08470 | 17832 ft | 395 kts | 244° |
| 2026-05-04 01:51 | 36.11852 | -111.11570 | 17835 ft | 395 kts | 244° |
| 2026-05-04 01:51 | 36.10728 | -111.14671 | 17825 ft | 396 kts | 244° |
| 2026-05-04 01:51 | 36.09601 | -111.17779 | 17818 ft | 396 kts | 244° |
| 2026-05-04 01:51 | 36.08471 | -111.20890 | 17815 ft | 397 kts | 244° |
| 2026-05-04 01:52 | 36.07340 | -111.23999 | 17814 ft | 397 kts | 244° |
| 2026-05-04 01:52 | 36.06204 | -111.27108 | 17815 ft | 397 kts | 244° |
| 2026-05-04 01:52 | 36.05063 | -111.30223 | 17802 ft | 398 kts | 244° |
| 2026-05-04 01:52 | 36.03923 | -111.33331 | 17801 ft | 398 kts | 244° |
| 2026-05-04 01:53 | 36.02780 | -111.36448 | 17806 ft | 397 kts | 244° |
| 2026-05-04 01:53 | 36.01641 | -111.39556 | 17807 ft | 398 kts | 244° |
| 2026-05-04 01:53 | 36.00503 | -111.42672 | 17810 ft | 398 kts | 244° |
| 2026-05-04 01:53 | 35.99365 | -111.45776 | 17808 ft | 398 kts | 244° |
| 2026-05-04 01:54 | 35.98220 | -111.48887 | 17814 ft | 398 kts | 244° |
| 2026-05-04 01:54 | 35.97074 | -111.51994 | 17814 ft | 398 kts | 244° |
| 2026-05-04 01:54 | 35.95927 | -111.55102 | 17810 ft | 398 kts | 244° |
| 2026-05-04 01:54 | 35.94798 | -111.58164 | 17809 ft | 398 kts | 244° |
| 2026-05-04 01:55 | 35.93633 | -111.61319 | 17813 ft | 398 kts | 244° |
| 2026-05-04 01:55 | 35.92499 | -111.64390 | 17814 ft | 399 kts | 244° |
| 2026-05-04 01:55 | 35.91333 | -111.67546 | 17817 ft | 399 kts | 244° |
| 2026-05-04 01:55 | 35.90198 | -111.70618 | 17817 ft | 400 kts | 244° |
| 2026-05-04 01:56 | 35.89044 | -111.73732 | 17840 ft | 400 kts | 244° |
| 2026-05-04 01:56 | 35.87885 | -111.76858 | 17856 ft | 400 kts | 244° |
| 2026-05-04 01:56 | 35.86727 | -111.79973 | 17901 ft | 400 kts | 244° |
| 2026-05-04 01:56 | 35.85566 | -111.83093 | 18044 ft | 400 kts | 244° |
| 2026-05-04 01:57 | 35.84406 | -111.86202 | 18074 ft | 399 kts | 244° |
| 2026-05-04 01:57 | 35.83217 | -111.89293 | 18100 ft | 399 kts | 242° |
| 2026-05-04 01:57 | 35.81931 | -111.92321 | 18122 ft | 398 kts | 240° |
| 2026-05-04 01:57 | 35.80577 | -111.95299 | 18147 ft | 398 kts | 239° |
| 2026-05-04 01:58 | 35.79191 | -111.98257 | 18156 ft | 398 kts | 239° |
| 2026-05-04 01:58 | 35.77805 | -112.01206 | 18163 ft | 398 kts | 239° |
| 2026-05-04 01:58 | 35.76429 | -112.04165 | 18166 ft | 398 kts | 239° |
| 2026-05-04 01:58 | 35.75066 | -112.07130 | 18154 ft | 398 kts | 239° |
| 2026-05-04 01:59 | 35.73712 | -112.10101 | 18141 ft | 398 kts | 240° |
| 2026-05-04 01:59 | 35.72358 | -112.13071 | 18134 ft | 398 kts | 239° |
| 2026-05-04 01:59 | 35.70992 | -112.16028 | 18115 ft | 398 kts | 239° |
| 2026-05-04 01:59 | 35.69612 | -112.18976 | 18198 ft | 397 kts | 239° |
| 2026-05-04 02:00 | 35.68222 | -112.21916 | 18432 ft | 398 kts | 239° |
| 2026-05-04 02:00 | 35.66827 | -112.24861 | 18638 ft | 399 kts | 239° |
| 2026-05-04 02:00 | 35.65431 | -112.27812 | 18845 ft | 399 kts | 239° |
| 2026-05-04 02:00 | 35.64037 | -112.30764 | 19054 ft | 399 kts | 239° |
| 2026-05-04 02:01 | 35.62645 | -112.33715 | 19256 ft | 399 kts | 239° |
| 2026-05-04 02:01 | 35.61253 | -112.36667 | 19461 ft | 400 kts | 239° |
| 2026-05-04 02:01 | 35.59861 | -112.39625 | 19692 ft | 400 kts | 240° |
| 2026-05-04 02:01 | 35.58479 | -112.42588 | 19929 ft | 400 kts | 240° |
| 2026-05-04 02:02 | 35.57101 | -112.45559 | 20171 ft | 400 kts | 240° |
| 2026-05-04 02:02 | 35.55721 | -112.48531 | 20405 ft | 400 kts | 240° |
| 2026-05-04 02:02 | 35.54342 | -112.51493 | 20644 ft | 400 kts | 240° |
| 2026-05-04 02:02 | 35.52960 | -112.54457 | 20884 ft | 400 kts | 240° |
| 2026-05-04 02:03 | 35.51581 | -112.57413 | 21126 ft | 399 kts | 240° |
| 2026-05-04 02:03 | 35.50199 | -112.60369 | 21369 ft | 399 kts | 240° |
| 2026-05-04 02:03 | 35.48817 | -112.63320 | 21623 ft | 399 kts | 241° |
| 2026-05-04 02:03 | 35.47432 | -112.66274 | 21880 ft | 399 kts | 241° |
| 2026-05-04 02:04 | 35.46044 | -112.69228 | 22132 ft | 400 kts | 241° |
| 2026-05-04 02:04 | 35.44655 | -112.72182 | 22390 ft | 400 kts | 241° |
| 2026-05-04 02:04 | 35.43261 | -112.75142 | 22658 ft | 401 kts | 241° |
| 2026-05-04 02:04 | 35.41869 | -112.78102 | 22919 ft | 401 kts | 241° |
| 2026-05-04 02:05 | 35.40475 | -112.81066 | 23188 ft | 401 kts | 242° |
| 2026-05-04 02:05 | 35.39090 | -112.84016 | 23454 ft | 400 kts | 241° |
| 2026-05-04 02:05 | 35.37699 | -112.86972 | 23667 ft | 401 kts | 242° |
| 2026-05-04 02:05 | 35.36290 | -112.89957 | 23893 ft | 402 kts | 242° |
| 2026-05-04 02:06 | 35.34886 | -112.92925 | 24121 ft | 403 kts | 242° |
| 2026-05-04 02:06 | 35.33476 | -112.95903 | 24353 ft | 405 kts | 242° |
| 2026-05-04 02:06 | 35.32061 | -112.98890 | 24567 ft | 406 kts | 242° |
| 2026-05-04 02:06 | 35.30644 | -113.01883 | 24798 ft | 407 kts | 242° |
| 2026-05-04 02:07 | 35.29221 | -113.04883 | 25031 ft | 408 kts | 242° |
| 2026-05-04 02:07 | 35.27791 | -113.07895 | 25267 ft | 410 kts | 242° |
| 2026-05-04 02:07 | 35.26357 | -113.10912 | 25481 ft | 411 kts | 242° |
| 2026-05-04 02:07 | 35.24921 | -113.13929 | 25719 ft | 412 kts | 242° |
| 2026-05-04 02:08 | 35.23478 | -113.16965 | 25803 ft | 412 kts | 242° |
| 2026-05-04 02:08 | 35.22037 | -113.20000 | 25825 ft | 412 kts | 242° |
| 2026-05-04 02:08 | 35.20598 | -113.23023 | 25822 ft | 412 kts | 242° |
| 2026-05-04 02:08 | 35.19152 | -113.26051 | 25804 ft | 412 kts | 242° |
| 2026-05-04 02:09 | 35.17707 | -113.29079 | 25806 ft | 412 kts | 242° |
| 2026-05-04 02:09 | 35.16263 | -113.32099 | 25807 ft | 412 kts | 242° |
| 2026-05-04 02:09 | 35.15305 | -113.34100 | 25802 ft | 412 kts | 242° |
| 2026-05-04 02:09 | 35.13854 | -113.37127 | 25784 ft | 412 kts | 242° |
| 2026-05-04 02:10 | 35.12408 | -113.40146 | 25779 ft | 412 kts | 242° |
| 2026-05-04 02:10 | 35.10957 | -113.43173 | 25787 ft | 413 kts | 242° |
| 2026-05-04 02:10 | 35.09508 | -113.46194 | 25790 ft | 412 kts | 242° |
| 2026-05-04 02:10 | 35.07592 | -113.50193 | 25769 ft | 412 kts | 242° |
| 2026-05-04 02:11 | 35.06613 | -113.52235 | 25766 ft | 412 kts | 242° |
| 2026-05-04 02:11 | 35.05168 | -113.55243 | 25770 ft | 411 kts | 242° |
| 2026-05-04 02:11 | 35.03718 | -113.58253 | 25773 ft | 411 kts | 242° |
| 2026-05-04 02:11 | 35.02264 | -113.61259 | 25766 ft | 411 kts | 242° |
| 2026-05-04 02:12 | 35.00810 | -113.64265 | 25758 ft | 411 kts | 242° |
| 2026-05-04 02:12 | 34.99358 | -113.67273 | 25766 ft | 411 kts | 242° |
| 2026-05-04 02:12 | 34.97912 | -113.70278 | 25763 ft | 411 kts | 242° |
| 2026-05-04 02:12 | 34.96462 | -113.73281 | 25761 ft | 411 kts | 242° |
| 2026-05-04 02:13 | 34.95008 | -113.76283 | 25756 ft | 411 kts | 242° |
| 2026-05-04 02:13 | 34.93555 | -113.79275 | 25749 ft | 410 kts | 241° |
| 2026-05-04 02:13 | 34.92101 | -113.82264 | 25745 ft | 410 kts | 242° |
| 2026-05-04 02:13 | 34.90649 | -113.85256 | 25753 ft | 410 kts | 241° |
| 2026-05-04 02:14 | 34.89196 | -113.88252 | 25742 ft | 410 kts | 242° |
| 2026-05-04 02:14 | 34.87747 | -113.91242 | 25738 ft | 410 kts | 242° |
| 2026-05-04 02:14 | 34.86295 | -113.94227 | 25737 ft | 410 kts | 241° |
| 2026-05-04 02:14 | 34.84813 | -113.97190 | 25736 ft | 410 kts | 240° |
| 2026-05-04 02:15 | 34.83301 | -114.00133 | 25736 ft | 410 kts | 240° |
| 2026-05-04 02:15 | 34.81770 | -114.03070 | 25723 ft | 410 kts | 240° |
| 2026-05-04 02:15 | 34.80236 | -114.06001 | 25723 ft | 410 kts | 240° |
| 2026-05-04 02:15 | 34.78708 | -114.08928 | 25724 ft | 410 kts | 240° |
| 2026-05-04 02:16 | 34.77179 | -114.11859 | 25734 ft | 410 kts | 240° |
| 2026-05-04 02:16 | 34.75657 | -114.14789 | 25721 ft | 410 kts | 240° |
| 2026-05-04 02:16 | 34.74135 | -114.17724 | 25734 ft | 410 kts | 240° |
| 2026-05-04 02:16 | 34.72636 | -114.20626 | 25716 ft | 410 kts | 240° |
| 2026-05-04 02:17 | 34.71102 | -114.23598 | 25732 ft | 410 kts | 240° |
| 2026-05-04 02:17 | 34.69582 | -114.26535 | 25729 ft | 410 kts | 240° |
| 2026-05-04 02:17 | 34.68080 | -114.29432 | 25744 ft | 410 kts | 240° |
| 2026-05-04 02:17 | 34.66559 | -114.32363 | 25753 ft | 410 kts | 240° |
| 2026-05-04 02:18 | 34.65039 | -114.35290 | 25747 ft | 410 kts | 240° |
| 2026-05-04 02:18 | 34.63496 | -114.38202 | 25715 ft | 411 kts | 237° |
| 2026-05-04 02:18 | 34.61654 | -114.40880 | 25725 ft | 414 kts | 232° |
| 2026-05-04 02:18 | 34.59760 | -114.43504 | 25726 ft | 414 kts | 232° |
| 2026-05-04 02:19 | 34.57861 | -114.46131 | 25731 ft | 414 kts | 232° |
| 2026-05-04 02:19 | 34.55960 | -114.48753 | 25723 ft | 413 kts | 232° |
| 2026-05-04 02:19 | 34.54061 | -114.51365 | 25723 ft | 413 kts | 232° |
| 2026-05-04 02:19 | 34.52161 | -114.53984 | 25722 ft | 414 kts | 232° |
| 2026-05-04 02:20 | 34.50263 | -114.56606 | 25726 ft | 414 kts | 232° |
| 2026-05-04 02:20 | 34.48366 | -114.59225 | 25715 ft | 414 kts | 232° |
| 2026-05-04 02:20 | 34.46466 | -114.61845 | 25708 ft | 414 kts | 232° |
| 2026-05-04 02:20 | 34.44565 | -114.64462 | 25705 ft | 414 kts | 232° |
| 2026-05-04 02:21 | 34.42666 | -114.67076 | 25722 ft | 414 kts | 232° |
| 2026-05-04 02:21 | 34.40765 | -114.69690 | 25710 ft | 414 kts | 232° |
| 2026-05-04 02:21 | 34.38860 | -114.72306 | 25716 ft | 414 kts | 232° |
| 2026-05-04 02:21 | 34.36956 | -114.74916 | 25710 ft | 413 kts | 232° |
| 2026-05-04 02:22 | 34.35056 | -114.77524 | 25723 ft | 413 kts | 232° |
| 2026-05-04 02:22 | 34.33154 | -114.80130 | 25724 ft | 413 kts | 232° |
| 2026-05-04 02:22 | 34.31254 | -114.82728 | 25727 ft | 412 kts | 232° |
| 2026-05-04 02:22 | 34.29353 | -114.85323 | 25728 ft | 412 kts | 232° |
| 2026-05-04 02:23 | 34.27449 | -114.87919 | 25727 ft | 412 kts | 232° |
| 2026-05-04 02:23 | 34.25545 | -114.90516 | 25726 ft | 412 kts | 232° |
| 2026-05-04 02:23 | 34.23646 | -114.93107 | 25728 ft | 412 kts | 232° |
| 2026-05-04 02:23 | 34.21740 | -114.95702 | 25728 ft | 412 kts | 232° |
| 2026-05-04 02:24 | 34.19840 | -114.98291 | 25728 ft | 412 kts | 232° |
| 2026-05-04 02:24 | 34.17936 | -115.00884 | 25738 ft | 412 kts | 232° |
| 2026-05-04 02:24 | 34.16036 | -115.03469 | 25730 ft | 411 kts | 232° |
| 2026-05-04 02:24 | 34.14145 | -115.06041 | 25742 ft | 410 kts | 232° |
| 2026-05-04 02:25 | 34.12249 | -115.08616 | 25739 ft | 410 kts | 232° |
| 2026-05-04 02:25 | 34.10356 | -115.11184 | 25735 ft | 409 kts | 232° |
| 2026-05-04 02:25 | 34.08464 | -115.13747 | 25737 ft | 410 kts | 232° |
| 2026-05-04 02:25 | 34.06569 | -115.16309 | 25745 ft | 409 kts | 232° |
| 2026-05-04 02:26 | 34.04676 | -115.18879 | 25742 ft | 409 kts | 232° |
| 2026-05-04 02:26 | 34.02815 | -115.21482 | 25739 ft | 411 kts | 233° |
| 2026-05-04 02:26 | 34.00976 | -115.24123 | 25750 ft | 412 kts | 234° |
| 2026-05-04 02:26 | 33.99147 | -115.26778 | 25757 ft | 412 kts | 234° |
| 2026-05-04 02:27 | 33.97319 | -115.29434 | 25763 ft | 412 kts | 234° |
| 2026-05-04 02:27 | 33.95483 | -115.32084 | 25760 ft | 411 kts | 234° |
| 2026-05-04 02:27 | 33.93677 | -115.34671 | 25757 ft | 394 kts | 234° |
| 2026-05-04 02:27 | 33.91952 | -115.37127 | 25761 ft | 375 kts | 234° |
| 2026-05-04 02:28 | 33.90307 | -115.39462 | 25765 ft | 358 kts | 234° |
| 2026-05-04 02:28 | 33.88732 | -115.41701 | 25766 ft | 353 kts | 234° |
| 2026-05-04 02:28 | 33.87134 | -115.43984 | 25766 ft | 351 kts | 234° |
| 2026-05-04 02:28 | 33.85584 | -115.46201 | 25766 ft | 351 kts | 234° |
| 2026-05-04 02:29 | 33.84015 | -115.48445 | 25769 ft | 351 kts | 234° |
| 2026-05-04 02:29 | 33.82447 | -115.50688 | 25770 ft | 350 kts | 234° |
| 2026-05-04 02:29 | 33.80880 | -115.52927 | 25759 ft | 349 kts | 234° |
| 2026-05-04 02:29 | 33.79309 | -115.55163 | 25769 ft | 351 kts | 234° |
| 2026-05-04 02:30 | 33.77727 | -115.57403 | 25770 ft | 351 kts | 234° |
| 2026-05-04 02:30 | 33.76149 | -115.59639 | 25766 ft | 351 kts | 234° |
| 2026-05-04 02:30 | 33.74572 | -115.61872 | 25767 ft | 350 kts | 234° |
| 2026-05-04 02:30 | 33.72998 | -115.64100 | 25767 ft | 350 kts | 234° |
| 2026-05-04 02:31 | 33.71421 | -115.66328 | 25765 ft | 350 kts | 234° |
| 2026-05-04 02:31 | 33.69847 | -115.68552 | 25756 ft | 349 kts | 234° |
| 2026-05-04 02:31 | 33.68284 | -115.70765 | 25762 ft | 347 kts | 235° |
| 2026-05-04 02:31 | 33.66724 | -115.72975 | 25766 ft | 346 kts | 235° |
| 2026-05-04 02:32 | 33.65170 | -115.75177 | 25765 ft | 345 kts | 235° |
| 2026-05-04 02:32 | 33.63619 | -115.77376 | 25764 ft | 345 kts | 235° |
| 2026-05-04 02:32 | 33.62064 | -115.79576 | 25762 ft | 346 kts | 235° |
| 2026-05-04 02:32 | 33.60509 | -115.81772 | 25762 ft | 346 kts | 235° |
| 2026-05-04 02:33 | 33.58946 | -115.83976 | 25762 ft | 346 kts | 235° |
| 2026-05-04 02:33 | 33.57388 | -115.86172 | 25761 ft | 346 kts | 235° |
| 2026-05-04 02:33 | 33.55831 | -115.88368 | 25760 ft | 346 kts | 235° |
| 2026-05-04 02:33 | 33.54272 | -115.90563 | 25762 ft | 349 kts | 235° |
| 2026-05-04 02:34 | 33.52668 | -115.92824 | 25766 ft | 363 kts | 234° |
| 2026-05-04 02:34 | 33.51069 | -115.95217 | 25792 ft | 372 kts | 239° |
| 2026-05-04 02:34 | 33.49574 | -115.97807 | 25762 ft | 384 kts | 239° |
| 2026-05-04 02:34 | 33.48051 | -116.00440 | 25763 ft | 394 kts | 239° |
| 2026-05-04 02:35 | 33.46456 | -116.03193 | 25773 ft | 398 kts | 238° |
| 2026-05-04 02:35 | 33.44870 | -116.05920 | 25772 ft | 400 kts | 238° |
| 2026-05-04 02:35 | 33.43299 | -116.08613 | 25774 ft | 400 kts | 238° |
| 2026-05-04 02:35 | 33.41705 | -116.11343 | 25670 ft | 401 kts | 238° |
| 2026-05-04 02:36 | 33.40109 | -116.14080 | 24850 ft | 401 kts | 238° |
| 2026-05-04 02:36 | 33.38518 | -116.16806 | 24042 ft | 399 kts | 238° |
| 2026-05-04 02:36 | 33.36936 | -116.19518 | 23287 ft | 396 kts | 237° |
| 2026-05-04 02:36 | 33.35346 | -116.22239 | 22458 ft | 388 kts | 236° |
| 2026-05-04 02:37 | 33.33590 | -116.24540 | 21554 ft | 372 kts | 224° |
| 2026-05-04 02:37 | 33.31522 | -116.26271 | 20855 ft | 356 kts | 213° |
| 2026-05-04 02:37 | 33.29347 | -116.27558 | 20198 ft | 340 kts | 211° |
| 2026-05-04 02:37 | 33.27264 | -116.28772 | 19557 ft | 328 kts | 211° |
| 2026-05-04 02:38 | 33.25221 | -116.29972 | 18925 ft | 325 kts | 211° |
| 2026-05-04 02:38 | 33.23209 | -116.31160 | 18318 ft | 322 kts | 211° |
| 2026-05-04 02:38 | 33.21209 | -116.32343 | 17638 ft | 319 kts | 211° |
| 2026-05-04 02:38 | 33.19225 | -116.33515 | 16949 ft | 318 kts | 211° |
| 2026-05-04 02:39 | 33.17233 | -116.34689 | 16280 ft | 321 kts | 210° |
| 2026-05-04 02:39 | 33.15213 | -116.35875 | 15620 ft | 325 kts | 210° |
| 2026-05-04 02:39 | 33.13180 | -116.37063 | 14967 ft | 325 kts | 210° |
| 2026-05-04 02:39 | 33.11170 | -116.38228 | 14469 ft | 316 kts | 209° |
| 2026-05-04 02:40 | 33.09219 | -116.39361 | 13967 ft | 309 kts | 209° |
| 2026-05-04 02:40 | 33.07298 | -116.40481 | 13446 ft | 304 kts | 210° |
| 2026-05-04 02:40 | 33.05414 | -116.41582 | 12868 ft | 301 kts | 210° |
| 2026-05-04 02:40 | 33.03542 | -116.42678 | 12321 ft | 299 kts | 209° |
| 2026-05-04 02:41 | 33.01694 | -116.43757 | 11939 ft | 290 kts | 209° |
| 2026-05-04 02:41 | 32.99962 | -116.45012 | 11655 ft | 294 kts | 220° |
| 2026-05-04 02:41 | 32.98418 | -116.46575 | 11327 ft | 289 kts | 223° |
| 2026-05-04 02:41 | 32.96897 | -116.48121 | 11010 ft | 287 kts | 223° |
| 2026-05-04 02:42 | 32.95358 | -116.49675 | 10709 ft | 289 kts | 223° |
| 2026-05-04 02:42 | 32.93841 | -116.51202 | 10424 ft | 283 kts | 223° |
| 2026-05-04 02:42 | 32.92338 | -116.52715 | 10111 ft | 283 kts | 222° |
| 2026-05-04 02:42 | 32.90839 | -116.54223 | 9814 ft | 282 kts | 222° |
| 2026-05-04 02:43 | 32.89373 | -116.55698 | 9484 ft | 278 kts | 221° |
| 2026-05-04 02:43 | 32.87872 | -116.57209 | 9152 ft | 280 kts | 221° |
| 2026-05-04 02:43 | 32.86385 | -116.58705 | 8823 ft | 281 kts | 221° |
| 2026-05-04 02:43 | 32.84908 | -116.60190 | 8618 ft | 281 kts | 221° |
| 2026-05-04 02:44 | 32.83417 | -116.61690 | 8505 ft | 282 kts | 221° |
| 2026-05-04 02:44 | 32.81918 | -116.63201 | 8366 ft | 281 kts | 221° |
| 2026-05-04 02:44 | 32.80431 | -116.64703 | 8219 ft | 281 kts | 221° |
| 2026-05-04 02:44 | 32.78939 | -116.66208 | 8071 ft | 280 kts | 221° |
| 2026-05-04 02:45 | 32.77520 | -116.67786 | 7964 ft | 280 kts | 231° |
| 2026-05-04 02:45 | 32.76453 | -116.69723 | 7635 ft | 281 kts | 239° |
| 2026-05-04 02:45 | 32.75496 | -116.71714 | 7027 ft | 273 kts | 240° |
| 2026-05-04 02:45 | 32.74582 | -116.73658 | 6428 ft | 266 kts | 240° |
| 2026-05-04 02:46 | 32.73708 | -116.75526 | 6019 ft | 250 kts | 240° |
| 2026-05-04 02:46 | 32.72904 | -116.77241 | 5943 ft | 222 kts | 240° |
| 2026-05-04 02:46 | 32.72206 | -116.78725 | 5975 ft | 190 kts | 242° |
| 2026-05-04 02:46 | 32.71574 | -116.80061 | 5980 ft | 183 kts | 239° |
| 2026-05-04 02:47 | 32.70672 | -116.81086 | 5707 ft | 182 kts | 206° |
| 2026-05-04 02:47 | 32.69425 | -116.81414 | 5438 ft | 187 kts | 192° |
| 2026-05-04 02:47 | 32.68129 | -116.81597 | 5140 ft | 188 kts | 191° |
| 2026-05-04 02:47 | 32.66833 | -116.81772 | 4994 ft | 187 kts | 192° |
| 2026-05-04 02:48 | 32.65540 | -116.81943 | 4988 ft | 187 kts | 191° |
| 2026-05-04 02:48 | 32.64345 | -116.82437 | 4985 ft | 181 kts | 217° |
| 2026-05-04 02:48 | 32.63556 | -116.83557 | 4984 ft | 179 kts | 246° |
| 2026-05-04 02:48 | 32.63390 | -116.84996 | 4989 ft | 179 kts | 275° |
| 2026-05-04 02:49 | 32.63828 | -116.86377 | 4999 ft | 180 kts | 292° |
| 2026-05-04 02:49 | 32.64359 | -116.87721 | 4984 ft | 180 kts | 292° |
| 2026-05-04 02:49 | 32.64888 | -116.89077 | 4992 ft | 182 kts | 292° |
| 2026-05-04 02:49 | 32.65416 | -116.90438 | 4920 ft | 182 kts | 292° |
| 2026-05-04 02:50 | 32.65945 | -116.91801 | 4751 ft | 182 kts | 293° |
| 2026-05-04 02:50 | 32.66472 | -116.93161 | 4448 ft | 181 kts | 293° |
| 2026-05-04 02:50 | 32.66996 | -116.94512 | 4140 ft | 180 kts | 293° |
| 2026-05-04 02:50 | 32.67519 | -116.95859 | 3857 ft | 179 kts | 293° |
| 2026-05-04 02:51 | 32.68036 | -116.97199 | 3650 ft | 179 kts | 292° |
| 2026-05-04 02:51 | 32.68407 | -116.98602 | 3407 ft | 179 kts | 285° |
| 2026-05-04 02:51 | 32.68752 | -117.00016 | 3159 ft | 174 kts | 284° |
| 2026-05-04 02:51 | 32.69067 | -117.01300 | 2897 ft | 151 kts | 284° |
| 2026-05-04 02:52 | 32.69347 | -117.02444 | 2701 ft | 139 kts | 284° |
| 2026-05-04 02:52 | 32.69613 | -117.03530 | 2689 ft | 136 kts | 285° |
| 2026-05-04 02:52 | 32.69876 | -117.04611 | 2617 ft | 137 kts | 285° |
| 2026-05-04 02:52 | 32.70139 | -117.05692 | 2430 ft | 135 kts | 285° |
| 2026-05-04 02:53 | 32.70397 | -117.06747 | 2241 ft | 135 kts | 285° |
| 2026-05-04 02:53 | 32.70657 | -117.07818 | 2073 ft | 134 kts | 285° |
| 2026-05-04 02:53 | 32.70918 | -117.08891 | 1875 ft | 135 kts | 285° |
| 2026-05-04 02:53 | 32.71178 | -117.09964 | 1654 ft | 135 kts | 286° |
| 2026-05-04 02:54 | 32.71435 | -117.11022 | 1442 ft | 134 kts | 285° |
| 2026-05-04 02:54 | 32.71696 | -117.12091 | 1229 ft | 134 kts | 284° |
| 2026-05-04 02:54 | 32.71953 | -117.13157 | 1017 ft | 134 kts | 282° |
| 2026-05-04 02:54 | 32.72212 | -117.14219 | 810 ft | 135 kts | 282° |
| 2026-05-04 02:55 | 32.72730 | -117.16347 | 362 ft | 133 kts | 282° |
| 2026-05-04 02:55 | 32.72896 | -117.17048 | 248 ft | 135 kts | 283° |
| 2026-05-04 02:55 | 32.73153 | -117.18118 | 46 ft | 134 kts | 284° |
| 2026-05-04 02:56 | 32.73328 | -117.18854 | 22 ft | 24 kts | 287° |
| 2026-05-04 02:56 | 32.73385 | -117.19094 | 22 ft | 22 kts | 269° |
| 2026-05-04 02:56 | 32.73344 | -117.19155 | 22 ft | 1 kts | 196° |
| 2026-05-04 02:56 | 32.73340 | -117.19157 | 22 ft | 0 kts | 200° |
| 2026-05-04 02:58 | 32.73343 | -117.19156 | 22 ft | 0 kts | 200° |
| 2026-05-04 02:58 | 32.73346 | -117.19154 | 22 ft | 0 kts | 200° |
| 2026-05-04 02:59 | 32.73345 | -117.19155 | 22 ft | 0 kts | 200° |
| 2026-05-04 03:00 | 32.73313 | -117.19212 | 22 ft | 19 kts | 259° |
| 2026-05-04 03:01 | 32.73338 | -117.19319 | 22 ft | 14 kts | 287° |
| 2026-05-04 03:01 | 32.73375 | -117.19473 | 23 ft | 25 kts | 285° |
| 2026-05-04 03:01 | 32.73398 | -117.19570 | 23 ft | 0 kts | 286° |
| 2026-05-04 03:01 | 32.73399 | -117.19572 | 23 ft | 1 kts | 286° |
| 2026-05-04 03:02 | 32.73418 | -117.19650 | 23 ft | 13 kts | 286° |
| 2026-05-04 03:02 | 32.73438 | -117.19732 | 24 ft | 8 kts | 286° |
| 2026-05-04 03:02 | 32.73441 | -117.19748 | 24 ft | 0 kts | 283° |
| 2026-05-04 03:02 | 32.73441 | -117.19750 | 24 ft | 0 kts | 281° |
| 2026-05-04 03:03 | 32.73443 | -117.19754 | 24 ft | 2 kts | 286° |
| 2026-05-04 03:03 | 32.73454 | -117.19834 | 23 ft | 14 kts | 268° |
| 2026-05-04 03:04 | 32.73411 | -117.19863 | 23 ft | 0 kts | 153° |
| 2026-05-04 03:04 | 32.73390 | -117.19861 | 23 ft | 5 kts | 174° |
| 2026-05-04 03:04 | 32.73380 | -117.19860 | 23 ft | 1 kts | 174° |
| 2026-05-04 03:04 | 32.73379 | -117.19859 | 23 ft | 0 kts | 174° |